createdAt,value
2023-03-21T00:00:42.162Z,85.65
2023-03-21T00:01:56.445Z,85.54
2023-03-21T00:02:59.539Z,85.70
2023-03-21T00:04:03.682Z,85.75
2023-03-21T00:05:15.526Z,85.74
2023-03-21T00:06:19.012Z,86.21
2023-03-21T00:07:21.872Z,85.95
2023-03-21T00:08:26.846Z,85.94
2023-03-21T00:09:29.719Z,85.84
2023-03-21T00:10:40.368Z,85.96
2023-03-21T00:11:55.997Z,86.30
2023-03-21T00:12:58.822Z,86.32
2023-03-21T00:14:02.547Z,85.90
2023-03-21T00:15:10.269Z,86.17
2023-03-21T00:16:20.319Z,86.48
2023-03-21T00:17:32.689Z,86.34
2023-03-21T00:18:36.864Z,86.32
2023-03-21T00:19:41.368Z,86.49
2023-03-21T00:20:47.465Z,86.42
2023-03-21T00:22:06.378Z,86.21
2023-03-21T00:23:10.765Z,86.31
2023-03-21T00:24:13.759Z,86.51
2023-03-21T00:25:16.840Z,86.52
2023-03-21T00:26:19.708Z,86.43
2023-03-21T00:27:44.840Z,86.63
2023-03-21T00:28:45.933Z,86.59
2023-03-21T00:29:49.984Z,86.34
2023-03-21T00:30:59.366Z,86.52
2023-03-21T00:32:02.203Z,86.70
2023-03-21T00:33:19.604Z,86.51
2023-03-21T00:34:36.466Z,86.54
2023-03-21T00:36:05.831Z,86.34
2023-03-21T00:37:13.238Z,86.36
2023-03-21T00:38:22.515Z,86.49
2023-03-21T00:39:26.192Z,86.61
2023-03-21T00:40:35.081Z,86.44
2023-03-21T00:41:43.347Z,86.69
2023-03-21T00:42:47.051Z,86.57
2023-03-21T00:43:50.154Z,86.40
2023-03-21T00:44:52.984Z,86.88
2023-03-21T00:45:58.332Z,86.16
2023-03-21T00:47:07.369Z,86.58
2023-03-21T00:48:11.388Z,86.48
2023-03-21T00:49:14.506Z,86.42
2023-03-21T00:50:18.176Z,86.51
2023-03-21T00:51:26.593Z,86.54
2023-03-21T00:52:40.160Z,86.41
2023-03-21T00:53:43.391Z,86.49
2023-03-21T00:54:46.420Z,86.41
2023-03-21T00:55:49.806Z,86.41
2023-03-21T00:56:53.173Z,86.62
2023-03-21T00:58:01.903Z,86.48
2023-03-21T00:59:05.426Z,86.48
2023-03-21T01:00:10.712Z,86.69
2023-03-21T01:01:13.868Z,86.55
2023-03-21T01:02:23.229Z,86.57
2023-03-21T01:03:26.731Z,86.59
2023-03-21T01:04:29.663Z,86.78
2023-03-21T01:05:54.339Z,86.87
2023-03-21T01:06:57.366Z,87.00
2023-03-21T01:08:01.829Z,87.07
2023-03-21T01:09:08.045Z,86.79
2023-03-21T01:10:12.460Z,86.96
2023-03-21T01:11:19.870Z,87.00
2023-03-21T01:12:22.740Z,86.64
2023-03-21T01:13:25.892Z,86.74
2023-03-21T01:14:29.265Z,86.76
2023-03-21T01:15:32.226Z,87.13
2023-03-21T01:16:36.128Z,87.07
2023-03-21T01:17:39.083Z,86.96
2023-03-21T01:18:42.385Z,86.89
2023-03-21T01:19:51.976Z,86.87
2023-03-21T01:20:58.073Z,86.89
2023-03-21T01:22:01.490Z,86.79
2023-03-21T01:23:04.977Z,86.98
2023-03-21T01:24:08.521Z,87.07
2023-03-21T01:25:22.041Z,86.97
2023-03-21T01:26:25.915Z,86.77
2023-03-21T01:27:28.931Z,86.68
2023-03-21T01:28:32.682Z,86.52
2023-03-21T01:29:35.578Z,86.47
2023-03-21T01:32:09.390Z,86.60
2023-03-21T01:33:14.376Z,86.64
2023-03-21T01:34:17.306Z,86.63
2023-03-21T01:35:20.424Z,86.59
2023-03-21T01:36:25.855Z,86.28
2023-03-21T01:37:33.947Z,86.45
2023-03-21T01:38:37.137Z,86.39
2023-03-21T01:39:40.457Z,86.41
2023-03-21T01:40:45.902Z,86.41
2023-03-21T01:41:58.053Z,86.12
2023-03-21T01:43:04.545Z,86.13
2023-03-21T01:44:07.802Z,86.25
2023-03-21T01:45:52.528Z,86.41
2023-03-21T01:47:10.902Z,86.08
2023-03-21T01:48:24.777Z,86.87
2023-03-21T01:49:38.793Z,86.41
2023-03-21T01:50:47.831Z,86.22
2023-03-21T01:52:14.002Z,86.28
2023-03-21T01:53:30.014Z,86.26
2023-03-21T01:54:38.201Z,86.49
2023-03-21T01:55:41.935Z,86.33
2023-03-21T01:56:57.763Z,86.57
2023-03-21T01:58:06.754Z,86.45
2023-03-21T01:59:28.457Z,86.50
2023-03-21T02:00:53.365Z,86.45
2023-03-21T02:02:07.484Z,86.21
2023-03-21T02:03:26.220Z,86.25
2023-03-21T02:04:50.885Z,86.40
2023-03-21T02:06:01.305Z,86.24
2023-03-21T02:07:14.590Z,86.57
2023-03-21T02:08:33.351Z,86.07
2023-03-21T02:09:47.337Z,86.41
2023-03-21T02:10:53.103Z,86.40
2023-03-21T02:12:11.132Z,86.08
2023-03-21T02:13:15.937Z,86.29
2023-03-21T02:14:28.946Z,86.35
2023-03-21T02:15:40.893Z,86.12
2023-03-21T02:17:04.503Z,86.00
2023-03-21T02:18:32.633Z,85.89
2023-03-21T02:19:53.364Z,85.93
2023-03-21T02:21:01.697Z,86.23
2023-03-21T02:22:25.906Z,85.75
2023-03-21T02:24:08.053Z,85.86
2023-03-21T02:25:45.581Z,85.84
2023-03-21T02:27:04.532Z,85.95
2023-03-21T02:28:26.020Z,85.67
2023-03-21T02:29:56.859Z,85.60
2023-03-21T02:31:19.866Z,85.26
2023-03-21T02:32:46.824Z,85.41
2023-03-21T02:34:02.218Z,85.43
2023-03-21T02:35:23.521Z,85.26
2023-03-21T02:36:38.213Z,85.20
2023-03-21T02:38:07.123Z,85.02
2023-03-21T02:39:15.821Z,85.41
2023-03-21T02:40:36.004Z,85.26
2023-03-21T02:41:52.162Z,85.37
2023-03-21T02:43:23.278Z,84.90
2023-03-21T02:44:35.665Z,85.06
2023-03-21T02:45:53.587Z,85.17
2023-03-21T02:47:07.090Z,85.03
2023-03-21T02:48:27.887Z,84.84
2023-03-21T02:49:51.592Z,84.95
2023-03-21T02:50:59.813Z,85.01
2023-03-21T02:52:15.652Z,84.99
2023-03-21T02:53:25.570Z,84.82
2023-03-21T02:54:46.934Z,84.95
2023-03-21T02:55:53.076Z,84.91
2023-03-21T02:56:59.357Z,84.66
2023-03-21T02:58:12.479Z,84.49
2023-03-21T02:59:22.691Z,84.51
2023-03-21T03:00:31.406Z,84.43
2023-03-21T03:01:34.581Z,84.53
2023-03-21T03:02:40.088Z,84.53
2023-03-21T03:03:44.070Z,84.53
2023-03-21T03:04:47.971Z,84.31
2023-03-21T03:05:55.877Z,83.95
2023-03-21T03:06:59.967Z,83.68
2023-03-21T03:08:35.766Z,83.76
2023-03-21T03:10:12.414Z,83.49
2023-03-21T03:11:23.651Z,83.78
2023-03-21T03:12:40.456Z,83.65
2023-03-21T03:14:21.194Z,83.96
2023-03-21T03:15:45.800Z,83.70
2023-03-21T03:17:24.250Z,83.88
2023-03-21T03:18:31.138Z,83.68
2023-03-21T03:19:49.713Z,83.92
2023-03-21T03:21:14.154Z,83.93
2023-03-21T03:22:29.320Z,83.69
2023-03-21T03:23:54.568Z,83.76
2023-03-21T03:25:19.866Z,83.52
2023-03-21T03:26:37.123Z,83.82
2023-03-21T03:27:44.416Z,83.62
2023-03-21T03:28:53.352Z,83.48
2023-03-21T03:30:00.872Z,83.47
2023-03-21T03:31:09.556Z,83.34
2023-03-21T03:32:44.856Z,83.44
2023-03-21T03:33:52.897Z,83.41
2023-03-21T03:34:57.595Z,83.36
2023-03-21T03:36:07.120Z,83.36
2023-03-21T03:37:16.992Z,83.38
2023-03-21T03:38:22.462Z,83.43
2023-03-21T03:39:35.928Z,83.33
2023-03-21T03:40:49.040Z,83.42
2023-03-21T03:42:28.043Z,83.32
2023-03-21T03:43:50.963Z,83.29
2023-03-21T03:44:55.287Z,83.19
2023-03-21T03:46:05.410Z,83.27
2023-03-21T03:47:31.694Z,83.27
2023-03-21T03:48:58.918Z,83.25
2023-03-21T03:50:04.840Z,83.22
2023-03-21T03:51:12.682Z,83.22
2023-03-21T03:52:59.816Z,83.16
2023-03-21T03:54:11.207Z,83.27
2023-03-21T03:55:17.692Z,83.32
2023-03-21T03:56:22.402Z,83.25
2023-03-21T03:57:27.242Z,83.05
2023-03-21T03:58:44.569Z,83.13
2023-03-21T03:59:49.806Z,83.13
2023-03-21T04:01:09.056Z,83.06
2023-03-21T04:02:13.235Z,83.11
2023-03-21T04:03:16.393Z,83.14
2023-03-21T04:04:22.891Z,82.96
2023-03-21T04:05:27.519Z,82.97
2023-03-21T04:06:30.486Z,82.90
2023-03-21T04:07:33.876Z,82.82
2023-03-21T04:08:37.751Z,82.89
2023-03-21T04:09:44.933Z,82.94
2023-03-21T04:10:51.776Z,82.63
2023-03-21T04:11:55.281Z,82.68
2023-03-21T04:12:58.178Z,82.76
2023-03-21T04:14:06.709Z,82.68
2023-03-21T04:15:11.289Z,82.53
2023-03-21T04:16:17.313Z,82.66
2023-03-21T04:17:20.144Z,82.60
2023-03-21T04:18:24.612Z,82.62
2023-03-21T04:19:27.495Z,82.65
2023-03-21T04:20:37.013Z,82.50
2023-03-21T04:21:40.511Z,82.47
2023-03-21T04:22:43.785Z,82.54
2023-03-21T04:23:47.015Z,82.56
2023-03-21T04:24:50.477Z,82.61
2023-03-21T04:25:56.926Z,82.63
2023-03-21T04:27:08.982Z,82.61
2023-03-21T04:28:16.977Z,82.67
2023-03-21T04:29:24.418Z,82.58
2023-03-21T04:31:01.228Z,82.65
2023-03-21T04:32:16.523Z,82.57
2023-03-21T04:33:25.860Z,82.72
2023-03-21T04:34:34.240Z,82.71
2023-03-21T04:35:38.981Z,82.75
2023-03-21T04:36:49.663Z,82.80
2023-03-21T04:37:52.715Z,82.79
2023-03-21T04:39:01.554Z,82.73
2023-03-21T04:40:07.484Z,82.73
2023-03-21T04:41:10.558Z,82.69
2023-03-21T04:42:14.665Z,82.84
2023-03-21T04:43:17.793Z,82.85
2023-03-21T04:44:21.014Z,82.78
2023-03-21T04:45:24.016Z,82.84
2023-03-21T04:46:26.921Z,82.90
2023-03-21T04:47:30.543Z,82.98
2023-03-21T04:48:33.496Z,82.80
2023-03-21T04:49:36.931Z,82.90
2023-03-21T04:50:39.759Z,82.98
2023-03-21T04:51:44.088Z,83.10
2023-03-21T04:52:48.793Z,82.97
2023-03-21T04:53:52.640Z,82.91
2023-03-21T04:54:56.231Z,83.08
2023-03-21T04:55:59.191Z,83.07
2023-03-21T04:57:02.075Z,83.09
2023-03-21T04:58:04.980Z,83.04
2023-03-21T04:59:12.288Z,83.07
2023-03-21T05:00:15.648Z,83.06
2023-03-21T05:01:20.927Z,83.19
2023-03-21T05:02:24.042Z,82.96
2023-03-21T05:03:28.746Z,82.84
2023-03-21T05:04:31.660Z,82.87
2023-03-21T05:05:37.277Z,82.78
2023-03-21T05:06:42.659Z,82.67
2023-03-21T05:07:45.875Z,82.73
2023-03-21T05:08:48.750Z,82.61
2023-03-21T05:09:51.909Z,82.60
2023-03-21T05:10:54.809Z,82.54
2023-03-21T05:12:03.890Z,82.55
2023-03-21T05:13:07.628Z,82.51
2023-03-21T05:14:14.097Z,82.51
2023-03-21T05:15:17.085Z,82.53
2023-03-21T05:16:22.405Z,82.40
2023-03-21T05:17:28.476Z,82.17
2023-03-21T05:18:34.886Z,82.24
2023-03-21T05:19:42.770Z,81.98
2023-03-21T05:20:47.279Z,81.51
2023-03-21T05:21:50.532Z,81.74
2023-03-21T05:22:57.457Z,81.68
2023-03-21T05:24:03.719Z,81.63
2023-03-21T05:25:11.825Z,81.75
2023-03-21T05:26:33.465Z,81.89
2023-03-21T05:27:54.026Z,81.69
2023-03-21T05:28:59.674Z,81.53
2023-03-21T05:30:09.565Z,81.59
2023-03-21T05:31:15.967Z,81.80
2023-03-21T05:32:19.232Z,81.75
2023-03-21T05:33:22.277Z,81.61
2023-03-21T05:34:27.301Z,81.59
2023-03-21T05:35:31.001Z,81.36
2023-03-21T05:36:36.270Z,81.45
2023-03-21T05:37:40.867Z,81.19
2023-03-21T05:38:46.213Z,81.25
2023-03-21T05:39:50.015Z,81.26
2023-03-21T05:40:58.574Z,81.42
2023-03-21T05:42:01.521Z,81.46
2023-03-21T05:43:04.716Z,81.49
2023-03-21T05:44:07.640Z,81.33
2023-03-21T05:45:11.659Z,81.39
2023-03-21T05:46:14.826Z,81.33
2023-03-21T05:47:18.806Z,81.35
2023-03-21T05:48:23.080Z,81.37
2023-03-21T05:49:49.976Z,81.20
2023-03-21T05:50:54.457Z,81.39
2023-03-21T05:51:59.674Z,81.38
2023-03-21T05:53:02.636Z,81.28
2023-03-21T05:54:06.563Z,81.40
2023-03-21T05:55:10.342Z,81.03
2023-03-21T05:56:13.467Z,80.57
2023-03-21T05:57:22.241Z,80.67
2023-03-21T05:58:45.424Z,80.53
2023-03-21T05:59:48.658Z,80.38
2023-03-21T06:00:53.087Z,80.25
2023-03-21T06:02:01.222Z,80.36
2023-03-21T06:03:04.559Z,80.56
2023-03-21T06:04:23.599Z,80.47
2023-03-21T06:05:26.702Z,80.41
2023-03-21T06:06:30.253Z,80.44
2023-03-21T06:07:37.178Z,80.43
2023-03-21T06:08:40.673Z,80.34
2023-03-21T06:09:43.541Z,80.25
2023-03-21T06:10:46.578Z,79.93
2023-03-21T06:11:53.106Z,80.00
2023-03-21T06:13:16.037Z,79.98
2023-03-21T06:14:20.576Z,79.42
2023-03-21T06:15:37.456Z,79.75
2023-03-21T06:16:49.194Z,79.43
2023-03-21T06:17:52.356Z,78.99
2023-03-21T06:18:56.218Z,79.38
2023-03-21T06:20:12.167Z,79.36
2023-03-21T06:21:24.203Z,79.22
2023-03-21T06:22:28.570Z,79.53
2023-03-21T06:23:32.575Z,79.30
2023-03-21T06:24:35.825Z,79.14
2023-03-21T06:25:38.949Z,79.26
2023-03-21T06:26:42.963Z,78.97
2023-03-21T06:27:46.165Z,78.80
2023-03-21T06:28:50.454Z,78.75
2023-03-21T06:29:53.488Z,78.69
2023-03-21T06:30:56.919Z,78.59
2023-03-21T06:32:01.903Z,78.81
2023-03-21T06:33:04.963Z,78.69
2023-03-21T06:34:08.017Z,78.85
2023-03-21T06:35:10.869Z,78.46
2023-03-21T06:36:14.144Z,78.72
2023-03-21T06:37:19.430Z,79.01
2023-03-21T06:38:23.159Z,78.96
2023-03-21T06:39:26.430Z,78.88
2023-03-21T06:40:29.297Z,78.79
2023-03-21T06:41:32.184Z,78.87
2023-03-21T06:42:38.434Z,78.69
2023-03-21T06:43:48.493Z,78.61
2023-03-21T06:44:51.643Z,78.53
2023-03-21T06:45:54.476Z,78.28
2023-03-21T06:46:57.411Z,77.95
2023-03-21T06:48:00.355Z,78.02
2023-03-21T06:49:08.946Z,78.08
2023-03-21T06:50:12.115Z,77.80
2023-03-21T06:51:17.676Z,77.85
2023-03-21T06:52:34.794Z,77.78
2023-03-21T06:53:38.270Z,77.80
2023-03-21T06:55:01.450Z,77.68
2023-03-21T06:56:04.620Z,77.71
2023-03-21T06:57:07.748Z,77.62
2023-03-21T06:58:11.202Z,77.26
2023-03-21T06:59:14.154Z,77.03
2023-03-21T07:00:26.911Z,77.34
2023-03-21T07:01:30.755Z,77.35
2023-03-21T07:02:39.852Z,77.40
2023-03-21T07:03:49.193Z,76.89
2023-03-21T07:04:53.833Z,76.63
2023-03-21T07:05:59.130Z,76.57
2023-03-21T07:07:02.186Z,76.15
2023-03-21T07:08:06.239Z,76.46
2023-03-21T07:09:09.430Z,76.51
2023-03-21T07:10:13.719Z,76.67
2023-03-21T07:11:22.434Z,76.83
2023-03-21T07:12:25.752Z,76.66
2023-03-21T07:13:52.341Z,76.86
2023-03-21T07:14:55.424Z,76.59
2023-03-21T07:15:59.691Z,76.69
2023-03-21T07:17:02.612Z,75.77
2023-03-21T07:18:07.066Z,76.26
2023-03-21T07:19:09.997Z,76.51
2023-03-21T07:20:13.353Z,76.50
2023-03-21T07:21:16.639Z,76.23
2023-03-21T07:22:20.516Z,76.70
2023-03-21T07:23:25.777Z,76.35
2023-03-21T07:24:28.852Z,76.17
2023-03-21T07:25:31.977Z,76.52
2023-03-21T07:26:35.323Z,76.05
2023-03-21T07:27:41.054Z,76.16
2023-03-21T07:28:45.614Z,76.03
2023-03-21T07:29:50.495Z,75.27
2023-03-21T07:31:02.681Z,75.15
2023-03-21T07:32:05.587Z,75.02
2023-03-21T07:33:08.884Z,75.19
2023-03-21T07:34:15.985Z,75.16
2023-03-21T07:35:19.233Z,74.94
2023-03-21T07:36:22.268Z,75.17
2023-03-21T07:37:25.452Z,75.10
2023-03-21T07:38:30.916Z,75.23
2023-03-21T07:39:35.014Z,75.45
2023-03-21T07:40:38.656Z,75.22
2023-03-21T07:41:41.936Z,75.25
2023-03-21T07:42:58.358Z,75.09
2023-03-21T07:45:11.292Z,75.36
2023-03-21T07:46:14.385Z,75.50
2023-03-21T07:47:17.237Z,75.44
2023-03-21T07:48:23.667Z,75.34
2023-03-21T07:49:26.745Z,75.43
2023-03-21T07:50:29.885Z,75.35
2023-03-21T07:51:35.330Z,75.15
2023-03-21T07:52:38.627Z,75.57
2023-03-21T07:53:42.022Z,75.27
2023-03-21T07:54:45.132Z,75.16
2023-03-21T07:55:52.733Z,75.22
2023-03-21T07:56:57.155Z,75.22
2023-03-21T07:58:00.219Z,74.87
2023-03-21T07:59:03.119Z,74.54
2023-03-21T08:00:07.289Z,75.00
2023-03-21T08:01:15.745Z,74.90
2023-03-21T08:02:19.048Z,74.75
2023-03-21T08:03:24.043Z,74.61
2023-03-21T08:04:27.983Z,74.81
2023-03-21T08:05:35.681Z,74.99
2023-03-21T08:06:38.745Z,75.15
2023-03-21T08:07:41.602Z,75.31
2023-03-21T08:08:44.487Z,75.02
2023-03-21T08:09:47.515Z,75.24
2023-03-21T08:10:50.382Z,75.51
2023-03-21T08:11:53.440Z,75.60
2023-03-21T08:12:56.861Z,75.64
2023-03-21T08:14:00.883Z,75.57
2023-03-21T08:15:03.994Z,75.54
2023-03-21T08:16:08.405Z,75.28
2023-03-21T08:17:11.278Z,75.22
2023-03-21T08:18:14.193Z,75.28
2023-03-21T08:19:20.643Z,75.14
2023-03-21T08:20:23.651Z,74.84
2023-03-21T08:21:27.726Z,74.16
2023-03-21T08:22:30.728Z,74.37
2023-03-21T08:23:33.592Z,74.36
2023-03-21T08:24:36.460Z,73.92
2023-03-21T08:25:39.739Z,74.05
2023-03-21T08:26:44.575Z,73.70
2023-03-21T08:27:48.357Z,73.88
2023-03-21T08:28:51.518Z,73.42
2023-03-21T08:29:54.510Z,73.36
2023-03-21T08:30:57.541Z,72.77
2023-03-21T08:32:00.693Z,73.11
2023-03-21T08:33:04.499Z,73.19
2023-03-21T08:34:07.994Z,73.41
2023-03-21T08:35:13.676Z,73.65
2023-03-21T08:36:16.691Z,73.62
2023-03-21T08:37:20.052Z,73.52
2023-03-21T08:38:23.043Z,73.28
2023-03-21T08:39:26.107Z,72.97
2023-03-21T08:40:29.514Z,73.36
2023-03-21T08:41:33.841Z,73.19
2023-03-21T08:42:38.024Z,73.12
2023-03-21T08:43:41.236Z,73.25
2023-03-21T08:44:44.510Z,73.19
2023-03-21T08:45:47.563Z,73.39
2023-03-21T08:46:50.486Z,72.92
2023-03-21T08:47:53.644Z,72.99
2023-03-21T08:48:56.841Z,72.42
2023-03-21T08:50:00.364Z,72.17
2023-03-21T08:51:03.220Z,72.21
2023-03-21T08:52:06.378Z,72.32
2023-03-21T08:53:09.523Z,72.24
2023-03-21T08:54:20.919Z,71.39
2023-03-21T08:55:24.271Z,71.47
2023-03-21T08:56:27.113Z,71.93
2023-03-21T08:57:30.556Z,71.86
2023-03-21T08:58:33.754Z,72.39
2023-03-21T08:59:37.354Z,72.22
2023-03-21T09:00:40.561Z,71.98
2023-03-21T09:01:43.665Z,71.51
2023-03-21T09:02:49.299Z,71.92
2023-03-21T09:03:52.270Z,71.35
2023-03-21T09:04:59.187Z,71.77
2023-03-21T09:06:03.147Z,71.42
2023-03-21T09:07:06.497Z,71.20
2023-03-21T09:08:09.449Z,71.30
2023-03-21T09:09:12.992Z,71.57
2023-03-21T09:10:21.915Z,71.53
2023-03-21T09:11:26.025Z,71.61
2023-03-21T09:12:29.037Z,71.72
2023-03-21T09:13:31.802Z,71.80
2023-03-21T09:14:35.454Z,71.29
2023-03-21T09:15:39.109Z,70.63
2023-03-21T09:16:42.285Z,70.47
2023-03-21T09:17:50.313Z,71.00
2023-03-21T09:18:55.765Z,71.19
2023-03-21T09:20:00.678Z,70.74
2023-03-21T09:21:12.779Z,71.23
2023-03-21T09:22:17.329Z,71.40
2023-03-21T09:23:20.344Z,70.32
2023-03-21T09:24:23.259Z,70.24
2023-03-21T09:25:32.531Z,70.67
2023-03-21T09:26:35.627Z,70.33
2023-03-21T09:27:38.722Z,70.73
2023-03-21T09:28:42.891Z,70.11
2023-03-21T09:29:46.117Z,70.19
2023-03-21T09:30:49.519Z,70.08
2023-03-21T09:31:54.018Z,69.52
2023-03-21T09:32:57.049Z,69.56
2023-03-21T09:34:00.416Z,69.69
2023-03-21T09:35:06.062Z,69.22
2023-03-21T09:36:14.455Z,69.04
2023-03-21T09:37:17.662Z,68.95
2023-03-21T09:38:20.836Z,69.23
2023-03-21T09:39:24.220Z,69.20
2023-03-21T09:40:52.780Z,68.88
2023-03-21T09:42:15.347Z,68.87
2023-03-21T09:43:37.422Z,68.01
2023-03-21T09:44:54.251Z,68.78
2023-03-21T09:46:09.191Z,69.26
2023-03-21T09:47:21.805Z,68.75
2023-03-21T09:48:39.591Z,68.62
2023-03-21T09:50:12.990Z,68.14
2023-03-21T09:51:22.087Z,68.67
2023-03-21T09:52:37.890Z,68.09
2023-03-21T09:53:43.303Z,68.53
2023-03-21T09:54:46.204Z,68.41
2023-03-21T09:57:06.486Z,68.51
2023-03-21T10:00:25.844Z,68.71
2023-03-21T10:01:33.190Z,68.27
2023-03-21T10:02:39.371Z,68.72
2023-03-21T10:03:44.177Z,68.53
2023-03-21T10:04:47.301Z,68.38
2023-03-21T10:05:52.850Z,68.09
2023-03-21T10:07:02.613Z,68.64
2023-03-21T10:08:17.530Z,68.10
2023-03-21T10:09:24.418Z,68.08
2023-03-21T10:10:32.421Z,68.24
2023-03-21T10:11:50.437Z,68.32
2023-03-21T10:12:55.827Z,67.62
2023-03-21T10:14:04.952Z,67.65
2023-03-21T10:15:14.643Z,67.44
2023-03-21T10:16:32.426Z,67.72
2023-03-21T10:17:43.183Z,68.19
2023-03-21T10:18:46.882Z,68.29
2023-03-21T10:19:57.239Z,67.83
2023-03-21T10:21:02.024Z,67.87
2023-03-21T10:22:04.900Z,67.83
2023-03-21T10:23:16.701Z,67.48
2023-03-21T10:24:26.221Z,68.11
2023-03-21T10:25:31.870Z,68.18
2023-03-21T10:26:35.273Z,68.50
2023-03-21T10:27:38.185Z,68.32
2023-03-21T10:28:52.723Z,68.26
2023-03-21T10:29:57.582Z,68.05
2023-03-21T10:31:04.559Z,67.85
2023-03-21T10:32:11.987Z,68.47
2023-03-21T10:33:20.573Z,68.61
2023-03-21T10:34:42.605Z,69.02
2023-03-21T10:35:52.349Z,69.16
2023-03-21T10:36:55.389Z,68.63
2023-03-21T10:37:58.635Z,68.62
2023-03-21T10:39:02.033Z,68.42
2023-03-21T10:40:07.985Z,68.83
2023-03-21T10:41:13.863Z,67.91
2023-03-21T10:42:25.307Z,68.28
2023-03-21T10:43:28.104Z,68.90
2023-03-21T10:44:34.862Z,68.82
2023-03-21T10:45:38.614Z,68.91
2023-03-21T10:47:19.668Z,68.81
2023-03-21T10:48:24.655Z,67.99
2023-03-21T10:49:35.879Z,68.00
2023-03-21T10:50:47.715Z,67.62
2023-03-21T10:51:55.701Z,68.15
2023-03-21T10:53:00.929Z,68.03
2023-03-21T10:54:12.111Z,67.50
2023-03-21T10:55:28.991Z,68.06
2023-03-21T10:56:38.430Z,67.62
2023-03-21T10:57:41.346Z,67.80
2023-03-21T10:58:46.953Z,67.68
2023-03-21T10:59:59.933Z,67.38
2023-03-21T11:01:10.137Z,67.24
2023-03-21T11:02:40.940Z,66.93
2023-03-21T11:03:47.015Z,67.26
2023-03-21T11:04:50.438Z,66.70
2023-03-21T11:05:57.401Z,66.26
2023-03-21T11:07:09.221Z,64.91
2023-03-21T11:08:18.079Z,65.40
2023-03-21T11:09:25.354Z,65.59
2023-03-21T11:10:48.321Z,65.83
2023-03-21T11:12:03.739Z,65.80
2023-03-21T11:13:20.437Z,66.39
2023-03-21T11:14:38.622Z,66.42
2023-03-21T11:15:54.209Z,65.55
2023-03-21T11:16:57.068Z,65.94
2023-03-21T11:18:13.073Z,66.14
2023-03-21T11:19:27.692Z,65.89
2023-03-21T11:20:31.757Z,65.84
2023-03-21T11:21:38.628Z,66.50
2023-03-21T11:22:44.971Z,66.53
2023-03-21T11:23:52.781Z,66.93
2023-03-21T11:25:01.867Z,67.12
2023-03-21T11:26:10.433Z,66.88
2023-03-21T11:27:13.375Z,66.76
2023-03-21T11:28:19.815Z,66.98
2023-03-21T11:29:39.014Z,66.46
2023-03-21T11:30:58.314Z,66.18
2023-03-21T11:32:10.526Z,66.44
2023-03-21T11:33:13.397Z,66.86
2023-03-21T11:34:31.013Z,66.78
2023-03-21T11:35:37.455Z,66.50
2023-03-21T11:36:40.896Z,66.32
2023-03-21T11:37:47.059Z,66.64
2023-03-21T11:38:52.925Z,66.86
2023-03-21T11:40:05.567Z,66.67
2023-03-21T11:41:08.909Z,65.79
2023-03-21T11:42:27.224Z,66.60
2023-03-21T11:43:39.144Z,66.39
2023-03-21T11:44:44.435Z,66.25
2023-03-21T11:46:01.431Z,67.20
2023-03-21T11:47:04.577Z,67.40
2023-03-21T11:48:16.473Z,66.64
2023-03-21T11:49:21.175Z,66.83
2023-03-21T11:50:38.477Z,67.10
2023-03-21T11:51:50.847Z,66.03
2023-03-21T11:53:12.598Z,65.95
2023-03-21T11:54:53.431Z,65.30
2023-03-21T11:56:02.267Z,65.96
2023-03-21T11:57:46.455Z,65.64
2023-03-21T11:58:55.955Z,66.19
2023-03-21T12:00:18.255Z,65.52
2023-03-21T12:01:36.589Z,65.14
2023-03-21T12:03:20.244Z,64.96
2023-03-21T12:04:49.758Z,65.18
2023-03-21T12:05:56.581Z,64.77
2023-03-21T12:07:18.362Z,64.90
2023-03-21T12:08:43.233Z,64.88
2023-03-21T12:10:08.380Z,64.74
2023-03-21T12:11:20.650Z,64.69
2023-03-21T12:12:59.016Z,64.91
2023-03-21T12:14:16.005Z,64.93
2023-03-21T12:15:37.539Z,64.67
2023-03-21T12:17:02.392Z,64.84
2023-03-21T12:18:24.276Z,64.13
2023-03-21T12:19:33.253Z,64.97
2023-03-21T12:20:45.277Z,63.00
2023-03-21T12:21:48.096Z,63.52
2023-03-21T12:23:17.984Z,62.43
2023-03-21T12:24:24.841Z,63.01
2023-03-21T12:25:39.918Z,61.40
2023-03-21T12:27:16.549Z,62.55
2023-03-21T12:28:38.513Z,62.28
2023-03-21T12:29:59.513Z,61.37
2023-03-21T12:31:08.331Z,60.81
2023-03-21T12:32:39.047Z,58.75
2023-03-21T12:34:12.433Z,56.46
2023-03-21T12:35:34.512Z,58.83
2023-03-21T12:36:50.144Z,58.52
2023-03-21T12:38:20.676Z,57.40
2023-03-21T12:39:33.432Z,57.09
2023-03-21T12:41:01.932Z,57.71
2023-03-21T12:42:13.909Z,56.96
2023-03-21T12:43:21.058Z,56.50
2023-03-21T12:44:29.175Z,56.10
2023-03-21T12:45:46.631Z,55.37
2023-03-21T12:47:01.519Z,54.11
2023-03-21T12:48:13.714Z,54.29
2023-03-21T12:49:23.428Z,54.70
2023-03-21T12:50:29.872Z,53.68
2023-03-21T12:51:43.044Z,53.12
2023-03-21T12:52:52.884Z,53.27
2023-03-21T12:53:55.775Z,53.90
2023-03-21T12:55:19.604Z,53.61
2023-03-21T12:56:49.791Z,53.47
2023-03-21T12:58:06.834Z,53.61
2023-03-21T12:59:28.363Z,54.41
2023-03-21T13:00:40.909Z,54.15
2023-03-21T13:01:48.201Z,54.03
2023-03-21T13:02:58.587Z,53.64
2023-03-21T13:04:24.666Z,54.01
2023-03-21T13:05:39.187Z,54.33
2023-03-21T13:06:45.580Z,53.77
2023-03-21T13:07:58.134Z,54.10
2023-03-21T13:09:10.533Z,53.87
2023-03-21T13:10:17.524Z,53.74
2023-03-21T13:11:24.488Z,53.73
2023-03-21T13:12:49.407Z,54.36
2023-03-21T13:14:20.865Z,52.46
2023-03-21T13:15:38.481Z,52.65
2023-03-21T13:16:47.819Z,52.27
2023-03-21T13:18:01.619Z,51.40
2023-03-21T13:19:19.930Z,51.86
2023-03-21T13:20:35.032Z,52.47
2023-03-21T13:21:46.349Z,52.72
2023-03-21T13:22:49.260Z,52.59
2023-03-21T13:24:28.700Z,50.82
2023-03-21T13:25:33.672Z,51.74
2023-03-21T13:26:42.247Z,51.38
2023-03-21T13:27:55.037Z,50.03
2023-03-21T13:28:59.039Z,49.52
2023-03-21T13:30:26.505Z,49.15
2023-03-21T13:31:33.866Z,49.94
2023-03-21T13:32:48.607Z,50.48
2023-03-21T13:33:55.079Z,50.24
2023-03-21T13:35:14.648Z,50.22
2023-03-21T13:36:25.868Z,50.06
2023-03-21T13:37:33.781Z,49.68
2023-03-21T13:38:40.454Z,49.43
2023-03-21T13:39:46.592Z,47.98
2023-03-21T13:41:11.378Z,47.06
2023-03-21T13:42:29.369Z,46.77
2023-03-21T13:43:53.032Z,47.41
2023-03-21T13:45:00.401Z,48.30
2023-03-21T13:46:10.283Z,47.24
2023-03-21T13:47:39.917Z,47.36
2023-03-21T13:49:00.434Z,44.86
2023-03-21T13:50:24.418Z,44.37
2023-03-21T13:51:43.862Z,45.23
2023-03-21T13:53:11.685Z,45.54
2023-03-21T13:54:14.955Z,44.98
2023-03-21T13:55:20.545Z,45.31
2023-03-21T13:56:24.617Z,45.52
2023-03-21T13:57:27.439Z,44.96
2023-03-21T13:58:33.682Z,45.23
2023-03-21T13:59:42.940Z,44.60
2023-03-21T14:01:11.275Z,44.65
2023-03-21T14:02:30.815Z,44.22
2023-03-21T14:03:35.659Z,41.51
2023-03-21T14:04:42.644Z,43.28
2023-03-21T14:05:57.034Z,43.44
2023-03-21T14:07:08.058Z,43.12
2023-03-21T14:08:27.738Z,42.08
2023-03-21T14:09:41.799Z,42.68
2023-03-21T14:10:53.928Z,43.15
2023-03-21T14:12:03.812Z,42.01
2023-03-21T14:13:16.617Z,41.65
2023-03-21T14:14:24.381Z,42.25
2023-03-21T14:15:40.943Z,41.72
2023-03-21T14:16:46.618Z,42.01
2023-03-21T14:17:59.014Z,42.52
2023-03-21T14:19:05.382Z,41.95
2023-03-21T14:20:21.291Z,41.21
2023-03-21T14:21:31.275Z,41.54
2023-03-21T14:22:36.273Z,41.46
2023-03-21T14:23:39.176Z,41.99
2023-03-21T14:24:47.939Z,42.04
2023-03-21T14:25:52.021Z,41.73
2023-03-21T14:26:56.263Z,41.33
2023-03-21T14:28:03.962Z,41.33
2023-03-21T14:29:25.265Z,41.78
2023-03-21T14:30:41.333Z,41.05
2023-03-21T14:31:47.060Z,42.06
2023-03-21T14:32:53.651Z,41.88
2023-03-21T14:34:01.227Z,42.48
2023-03-21T14:35:05.005Z,42.37
2023-03-21T14:36:15.817Z,42.69
2023-03-21T14:37:30.622Z,43.06
2023-03-21T14:38:36.813Z,43.14
2023-03-21T14:39:39.754Z,43.42
2023-03-21T14:40:48.239Z,43.99
2023-03-21T14:41:57.363Z,43.71
2023-03-21T14:43:05.833Z,43.93
2023-03-21T14:44:16.965Z,44.00
2023-03-21T14:45:24.946Z,44.76
2023-03-21T14:46:28.103Z,45.25
2023-03-21T14:47:32.830Z,45.51
2023-03-21T14:48:38.445Z,46.13
2023-03-21T14:49:41.539Z,46.15
2023-03-21T14:50:50.470Z,46.19
2023-03-21T14:51:56.228Z,46.48
2023-03-21T14:53:00.312Z,46.96
2023-03-21T14:54:03.221Z,47.30
2023-03-21T14:55:15.621Z,47.64
2023-03-21T14:56:25.623Z,47.70
2023-03-21T14:57:30.992Z,47.88
2023-03-21T14:58:37.839Z,48.16
2023-03-21T14:59:42.166Z,48.48
2023-03-21T15:00:50.241Z,48.73